createdAt,value
2023-03-03T00:00:02.419Z,101279.84
2023-03-03T00:02:30.609Z,101236.66
2023-03-03T00:04:58.575Z,101266.41
2023-03-03T00:07:27.856Z,101190.09
2023-03-03T00:09:55.880Z,101240.34
2023-03-03T00:12:26.174Z,101264.78
2023-03-03T00:14:54.737Z,101261.13
2023-03-03T00:17:25.284Z,101097.91
2023-03-03T00:19:53.333Z,101240.59
2023-03-03T00:22:31.429Z,101278.47
2023-03-03T00:25:02.391Z,101250.59
2023-03-03T00:27:36.175Z,101259.75
2023-03-03T00:30:04.883Z,101232.78
2023-03-03T00:32:39.774Z,101180.38
2023-03-03T00:35:25.524Z,101258.41
2023-03-03T00:37:57.386Z,101222.38
2023-03-03T00:40:27.570Z,101261.50
2023-03-03T00:42:59.015Z,101251.75
2023-03-03T00:45:33.325Z,101192.44
2023-03-03T00:48:11.417Z,101252.38
2023-03-03T00:50:44.437Z,101257.56
2023-03-03T00:53:17.323Z,101160.91
2023-03-03T00:55:46.692Z,101247.00
2023-03-03T00:58:15.306Z,101237.84
2023-03-03T01:00:43.569Z,101234.53
2023-03-03T01:03:15.518Z,101244.78
2023-03-03T01:05:43.803Z,101249.97
2023-03-03T01:08:13.580Z,101160.59
2023-03-03T01:10:46.419Z,101249.97
2023-03-03T01:13:14.616Z,101241.28
2023-03-03T01:15:42.592Z,101237.69
2023-03-03T01:18:11.606Z,101241.19
2023-03-03T01:20:39.939Z,101244.50
2023-03-03T01:23:07.891Z,101240.00
2023-03-03T01:25:37.520Z,101239.91
2023-03-03T01:28:05.850Z,101244.03
2023-03-03T01:30:34.226Z,101220.75
2023-03-03T01:33:02.244Z,101240.25
2023-03-03T01:35:31.056Z,101239.09
2023-03-03T01:37:59.719Z,101242.38
2023-03-03T01:40:30.767Z,101249.06
2023-03-03T01:43:02.500Z,101219.09
2023-03-03T01:45:32.170Z,101236.03
2023-03-03T01:48:02.791Z,101208.63
2023-03-03T01:50:41.129Z,101219.69
2023-03-03T01:53:15.079Z,101235.53
2023-03-03T01:55:44.928Z,101178.41
2023-03-03T01:58:19.638Z,101224.19
2023-03-03T02:00:52.435Z,101218.00
2023-03-03T02:03:23.572Z,101072.03
2023-03-03T02:05:54.183Z,101218.72
2023-03-03T02:08:27.922Z,101219.41
2023-03-03T02:10:57.082Z,101220.22
2023-03-03T02:13:26.420Z,101228.69
2023-03-03T02:15:54.252Z,101234.69
2023-03-03T02:18:22.484Z,101219.03
2023-03-03T02:20:58.673Z,101228.50
2023-03-03T02:23:34.070Z,101194.47
2023-03-03T02:26:10.029Z,101197.25
2023-03-03T02:28:40.974Z,101221.53
2023-03-03T02:31:13.412Z,101231.00
2023-03-03T02:33:42.423Z,101220.44
2023-03-03T02:36:13.612Z,101226.44
2023-03-03T02:38:47.413Z,101229.03
2023-03-03T02:41:27.631Z,101155.19
2023-03-03T02:44:00.531Z,101225.44
2023-03-03T02:46:29.124Z,101221.06
2023-03-03T02:48:57.084Z,101217.69
2023-03-03T02:51:24.977Z,101233.81
2023-03-03T02:53:52.845Z,101226.84
2023-03-03T02:56:22.244Z,101233.63
2023-03-03T02:58:50.157Z,101237.81
2023-03-03T03:01:18.427Z,101224.75
2023-03-03T03:03:46.566Z,101229.84
2023-03-03T03:06:14.543Z,101153.69
2023-03-03T03:08:42.554Z,101226.97
2023-03-03T03:11:10.546Z,101170.53
2023-03-03T03:13:39.891Z,101221.50
2023-03-03T03:16:08.524Z,101223.09
2023-03-03T03:18:36.418Z,101183.78
2023-03-03T03:21:09.110Z,101218.63
2023-03-03T03:23:37.251Z,101216.81
2023-03-03T03:26:06.011Z,101213.34
2023-03-03T03:28:34.447Z,101211.44
2023-03-03T03:31:05.140Z,101211.25
2023-03-03T03:33:33.180Z,101212.94
2023-03-03T03:36:01.742Z,101155.50
2023-03-03T03:38:31.622Z,101207.56
2023-03-03T03:40:59.948Z,101182.97
2023-03-03T03:43:27.947Z,101208.06
2023-03-03T03:45:56.190Z,101203.59
2023-03-03T03:48:25.462Z,101206.09
2023-03-03T03:50:53.543Z,101187.28
2023-03-03T03:53:21.521Z,101204.09
2023-03-03T03:55:49.477Z,101211.78
2023-03-03T03:58:19.012Z,101210.69
2023-03-03T04:00:47.900Z,101207.09
2023-03-03T04:03:15.857Z,101208.69
2023-03-03T04:05:45.634Z,101140.41
2023-03-03T04:08:13.888Z,101188.16
2023-03-03T04:10:41.710Z,101177.94
2023-03-03T04:13:09.608Z,101194.94
2023-03-03T04:15:37.609Z,101189.66
2023-03-03T04:18:05.856Z,101163.50
2023-03-03T04:20:33.807Z,101178.13
2023-03-03T04:23:03.187Z,101176.22
2023-03-03T04:25:30.989Z,101188.09
2023-03-03T04:27:58.916Z,101173.06
2023-03-03T04:30:26.945Z,101187.81
2023-03-03T04:32:54.755Z,101191.09
2023-03-03T04:35:22.834Z,101193.47
2023-03-03T04:37:51.298Z,101182.94
2023-03-03T04:40:20.788Z,101181.13
2023-03-03T04:42:48.719Z,101154.16
2023-03-03T04:45:16.970Z,101192.06
2023-03-03T04:47:45.049Z,101179.53
2023-03-03T04:50:13.200Z,101166.97
2023-03-03T04:52:41.146Z,101177.84
2023-03-03T04:55:10.844Z,101180.31
2023-03-03T04:57:40.153Z,101175.03
2023-03-03T05:00:09.280Z,101166.78
2023-03-03T05:02:37.173Z,101165.28
2023-03-03T05:05:05.721Z,101173.84
2023-03-03T05:07:33.741Z,101094.31
2023-03-03T05:10:01.552Z,101135.63
2023-03-03T05:12:29.497Z,101046.94
2023-03-03T05:14:58.773Z,101148.97
2023-03-03T05:17:26.793Z,101153.22
2023-03-03T05:19:57.356Z,101155.72
2023-03-03T05:22:25.618Z,101107.22
2023-03-03T05:24:53.924Z,100998.91
2023-03-03T05:27:22.082Z,101123.56
2023-03-03T05:29:50.011Z,101126.34
2023-03-03T05:32:19.306Z,101143.56
2023-03-03T05:34:47.436Z,101135.50
2023-03-03T05:37:15.494Z,101117.00
2023-03-03T05:39:44.664Z,101134.31
2023-03-03T05:42:13.694Z,101111.84
2023-03-03T05:44:41.633Z,101138.50
2023-03-03T05:47:09.829Z,101098.56
2023-03-03T05:49:39.438Z,101146.97
2023-03-03T05:52:09.019Z,101124.56
2023-03-03T05:54:36.941Z,101126.94
2023-03-03T05:57:04.946Z,101146.66
2023-03-03T05:59:32.922Z,101147.44
2023-03-03T06:02:00.806Z,101137.09
2023-03-03T06:04:28.713Z,101124.34
2023-03-03T06:06:57.981Z,101128.13
2023-03-03T06:09:26.342Z,101136.31
2023-03-03T06:11:54.804Z,101146.84
2023-03-03T06:14:22.776Z,101129.34
2023-03-03T06:16:50.815Z,101113.00
2023-03-03T06:19:18.957Z,101087.22
2023-03-03T06:21:47.317Z,101140.69
2023-03-03T06:24:17.036Z,101088.03
2023-03-03T06:26:44.983Z,101092.81
2023-03-03T06:29:15.479Z,101137.09
2023-03-03T06:31:43.698Z,101120.78
2023-03-03T06:34:11.724Z,101098.50
2023-03-03T06:36:39.780Z,101102.78
2023-03-03T06:39:07.963Z,101131.16
2023-03-03T06:41:37.332Z,101108.06
2023-03-03T06:44:05.717Z,101038.63
2023-03-03T06:46:33.551Z,101027.38
2023-03-03T06:49:01.557Z,101115.69
2023-03-03T06:51:35.104Z,101126.63
2023-03-03T06:54:07.816Z,101117.72
2023-03-03T06:56:38.253Z,101122.13
2023-03-03T06:59:13.745Z,101110.06
2023-03-03T07:01:42.315Z,101115.53
2023-03-03T07:04:23.661Z,101118.41
2023-03-03T07:06:51.629Z,101107.00
2023-03-03T07:09:24.116Z,101114.28
2023-03-03T07:11:54.244Z,101119.22
2023-03-03T07:14:22.162Z,101091.22
2023-03-03T07:16:55.220Z,101117.03
2023-03-03T07:19:32.480Z,101102.84
2023-03-03T07:22:03.052Z,100940.22
2023-03-03T07:24:32.581Z,101090.22
2023-03-03T07:27:12.355Z,101068.69
2023-03-03T07:29:41.870Z,101084.25
2023-03-03T07:32:26.142Z,101085.50
2023-03-03T07:34:56.528Z,101082.41
2023-03-03T07:37:32.330Z,101082.75
2023-03-03T07:40:01.799Z,101085.59
2023-03-03T07:42:40.202Z,100967.25
2023-03-03T07:45:26.210Z,101061.28
2023-03-03T07:47:59.942Z,101036.38
2023-03-03T07:50:27.904Z,101044.94
2023-03-03T07:52:58.241Z,101044.63
2023-03-03T07:55:33.487Z,101034.81
2023-03-03T07:58:22.122Z,101025.91
2023-03-03T08:01:22.884Z,101025.69
2023-03-03T08:03:52.616Z,101027.25
2023-03-03T08:06:37.246Z,100938.88
2023-03-03T08:09:26.286Z,101002.59
2023-03-03T08:11:56.595Z,100998.41
2023-03-03T08:14:30.568Z,100988.50
2023-03-03T08:17:00.613Z,100991.06
2023-03-03T08:19:32.016Z,100993.94
2023-03-03T08:22:04.362Z,100991.09
2023-03-03T08:24:32.242Z,100983.66
2023-03-03T08:27:00.065Z,100994.53
2023-03-03T08:29:29.451Z,100984.72
2023-03-03T08:31:57.338Z,100988.34
2023-03-03T08:34:25.327Z,100977.13
2023-03-03T08:36:53.354Z,100975.38
2023-03-03T08:39:21.391Z,100968.66
2023-03-03T08:41:49.208Z,100987.13
2023-03-03T08:44:17.236Z,100926.81
2023-03-03T08:46:46.528Z,100982.22
2023-03-03T08:49:40.118Z,100975.25
2023-03-03T08:52:07.958Z,100971.97
2023-03-03T08:54:35.758Z,100970.72
2023-03-03T08:57:03.828Z,100968.94
2023-03-03T08:59:31.759Z,100956.03
2023-03-03T09:02:00.970Z,100956.31
2023-03-03T09:04:29.100Z,100918.06
2023-03-03T09:06:56.909Z,100960.97
2023-03-03T09:09:24.774Z,100940.34
2023-03-03T09:11:54.780Z,100935.59
2023-03-03T09:14:22.694Z,100928.84
2023-03-03T09:16:53.316Z,100907.25
2023-03-03T09:19:27.176Z,100920.72
2023-03-03T09:21:57.478Z,100838.16
2023-03-03T09:24:27.784Z,100848.28
2023-03-03T09:26:58.643Z,100889.41
2023-03-03T09:29:29.245Z,100896.03
2023-03-03T09:31:59.804Z,100891.84
2023-03-03T09:34:40.773Z,100861.97
2023-03-03T09:37:22.037Z,100884.59
2023-03-03T09:39:51.930Z,100863.22
2023-03-03T09:42:30.831Z,100859.09
2023-03-03T09:45:27.304Z,100852.47
2023-03-03T09:48:27.601Z,100838.09
2023-03-03T09:51:08.886Z,100819.06
2023-03-03T09:53:54.425Z,100826.03
2023-03-03T09:56:30.172Z,100811.31
2023-03-03T09:59:19.748Z,100811.84
2023-03-03T10:02:01.078Z,100812.09
2023-03-03T10:05:01.356Z,100810.16
2023-03-03T10:07:40.302Z,100807.09
2023-03-03T10:10:19.524Z,100793.25
2023-03-03T10:12:57.385Z,100785.84
2023-03-03T10:15:36.647Z,100790.38
2023-03-03T10:18:16.503Z,100811.81
2023-03-03T10:20:58.668Z,100767.50
2023-03-03T10:23:41.826Z,100809.69
2023-03-03T10:26:20.443Z,100787.56
2023-03-03T10:29:08.257Z,100795.16
2023-03-03T10:31:50.586Z,100787.22
2023-03-03T10:34:30.946Z,100798.31
2023-03-03T10:37:05.314Z,100797.44
2023-03-03T10:39:48.947Z,100804.06
2023-03-03T10:42:35.222Z,100816.03
2023-03-03T10:45:36.927Z,100804.53
2023-03-03T10:48:24.828Z,100800.69
2023-03-03T10:51:02.597Z,100793.97
2023-03-03T10:53:35.846Z,100786.75
2023-03-03T10:56:27.716Z,100799.47
2023-03-03T10:59:09.854Z,100779.94
2023-03-03T11:01:48.542Z,100780.44
2023-03-03T11:04:41.487Z,100768.13
2023-03-03T11:07:15.508Z,100762.09
2023-03-03T11:09:58.851Z,100747.03
2023-03-03T11:12:41.277Z,100702.81
2023-03-03T11:15:23.052Z,100720.06
2023-03-03T11:18:04.052Z,100713.75
2023-03-03T11:20:39.976Z,100698.75
2023-03-03T11:23:32.056Z,100689.50
2023-03-03T11:26:09.716Z,100674.25
2023-03-03T11:29:03.791Z,100675.53
2023-03-03T11:31:42.500Z,100672.75
2023-03-03T11:34:24.538Z,100659.47
2023-03-03T11:36:59.733Z,100668.31
2023-03-03T11:39:28.509Z,100641.72
2023-03-03T11:42:05.871Z,100647.50
2023-03-03T11:44:39.523Z,100618.19
2023-03-03T11:47:18.308Z,100622.81
2023-03-03T11:49:51.519Z,100529.63
2023-03-03T11:52:28.722Z,100628.56
2023-03-03T11:55:03.701Z,100621.88
2023-03-03T11:57:37.291Z,100599.53
2023-03-03T12:00:21.779Z,100588.47
2023-03-03T12:03:10.796Z,100575.50
2023-03-03T12:05:55.138Z,100556.91
2023-03-03T12:08:39.338Z,100543.16
2023-03-03T12:11:15.005Z,100525.34
2023-03-03T12:13:55.412Z,100503.16
2023-03-03T12:16:33.650Z,100505.13
2023-03-03T12:19:17.074Z,100485.44
2023-03-03T12:22:11.959Z,100474.50
2023-03-03T12:25:20.380Z,100460.16
2023-03-03T12:27:55.849Z,100440.31
2023-03-03T12:30:37.432Z,100443.00
2023-03-03T12:33:28.106Z,100452.69
2023-03-03T12:36:06.377Z,100436.41
2023-03-03T12:38:41.838Z,100439.97
2023-03-03T12:41:20.445Z,100420.63
2023-03-03T12:43:59.405Z,100424.22
2023-03-03T12:46:41.768Z,100417.41
2023-03-03T12:49:11.038Z,100418.97
2023-03-03T12:51:49.547Z,100408.06
2023-03-03T12:54:51.275Z,100360.88
2023-03-03T12:57:26.671Z,100398.78
2023-03-03T13:00:14.963Z,100374.06
2023-03-03T13:02:50.346Z,100400.91
2023-03-03T13:05:25.933Z,100394.03
2023-03-03T13:08:06.529Z,100373.31
2023-03-03T13:10:41.505Z,100345.53
2023-03-03T13:13:17.900Z,100354.88
2023-03-03T13:15:56.226Z,100353.38
2023-03-03T13:18:37.332Z,100339.97
2023-03-03T13:21:15.735Z,100340.06
2023-03-03T13:23:52.389Z,100322.69
2023-03-03T13:26:27.402Z,100296.72
2023-03-03T13:29:02.882Z,100297.28
2023-03-03T13:31:35.571Z,100294.81
2023-03-03T13:34:04.114Z,100271.31
2023-03-03T13:36:38.996Z,100266.88
2023-03-03T13:39:19.499Z,100270.38
2023-03-03T13:41:57.017Z,100252.34
2023-03-03T13:44:32.436Z,100179.25
2023-03-03T13:47:10.139Z,100249.34
2023-03-03T13:49:49.028Z,100214.91
2023-03-03T13:52:22.636Z,100211.38
2023-03-03T13:54:57.619Z,100187.75
2023-03-03T13:57:39.667Z,100176.00
2023-03-03T14:00:21.359Z,100187.25
2023-03-03T14:03:04.675Z,100168.47
2023-03-03T14:05:38.526Z,100156.25
2023-03-03T14:08:18.033Z,100147.72
2023-03-03T14:11:01.600Z,100139.19
2023-03-03T14:13:33.613Z,100112.78
2023-03-03T14:16:10.431Z,100099.66
2023-03-03T14:18:45.146Z,100131.94
2023-03-03T14:21:17.582Z,100127.75
2023-03-03T14:23:57.291Z,100102.16
2023-03-03T14:26:25.403Z,100123.50
2023-03-03T14:29:15.520Z,100052.41
2023-03-03T14:31:44.986Z,100105.16
2023-03-03T14:34:30.117Z,100046.03
2023-03-03T14:37:09.929Z,100111.31
2023-03-03T14:39:41.087Z,100095.44
2023-03-03T14:42:15.592Z,100091.63
2023-03-03T14:44:54.792Z,100100.19
2023-03-03T14:47:24.316Z,100103.41
2023-03-03T14:49:54.707Z,100101.53
2023-03-03T14:52:26.038Z,100098.69
2023-03-03T14:54:57.018Z,100112.63
2023-03-03T14:57:46.508Z,100080.66
2023-03-03T15:00:36.130Z,100098.25
2023-03-03T15:03:19.778Z,100083.44
2023-03-03T15:05:51.505Z,100088.81
2023-03-03T15:08:34.166Z,100077.25
2023-03-03T15:11:26.753Z,100071.84
2023-03-03T15:14:05.006Z,100077.38
2023-03-03T15:16:35.768Z,100085.69
2023-03-03T15:19:23.893Z,100095.44
2023-03-03T15:22:01.056Z,100079.16
2023-03-03T15:24:37.376Z,100076.81
2023-03-03T15:27:12.037Z,100105.09
2023-03-03T15:29:46.317Z,100091.97
2023-03-03T15:32:21.425Z,100083.19
2023-03-03T15:35:00.144Z,100037.91
2023-03-03T15:37:42.592Z,100085.25
2023-03-03T15:40:20.535Z,100081.78
2023-03-03T15:42:54.043Z,100074.66
2023-03-03T15:45:28.359Z,100073.63
2023-03-03T15:48:27.686Z,100083.00
2023-03-03T15:51:05.477Z,100084.47
2023-03-03T15:53:54.034Z,100086.81
2023-03-03T15:56:34.333Z,100071.63
2023-03-03T15:59:26.452Z,100068.97
2023-03-03T16:02:01.328Z,100011.22
2023-03-03T16:04:32.785Z,100030.56
2023-03-03T16:07:10.801Z,99980.22
2023-03-03T16:09:52.195Z,100068.84
2023-03-03T16:12:32.175Z,100072.84
2023-03-03T16:15:44.721Z,100076.75
2023-03-03T16:18:24.740Z,100088.59
2023-03-03T16:21:04.536Z,100000.75
2023-03-03T16:23:41.043Z,100068.44
2023-03-03T16:26:23.444Z,100071.47
2023-03-03T16:29:05.152Z,100066.03
2023-03-03T16:31:37.812Z,100052.09
2023-03-03T16:34:16.945Z,99976.00
2023-03-03T16:36:56.090Z,100053.88
2023-03-03T16:39:34.962Z,100056.59
2023-03-03T16:42:09.298Z,99898.47
2023-03-03T16:44:47.899Z,100052.56
2023-03-03T16:47:27.553Z,100040.63
2023-03-03T16:50:15.782Z,100010.22
2023-03-03T16:52:48.728Z,99994.50
2023-03-03T16:55:21.696Z,100024.91
2023-03-03T16:58:00.497Z,100032.06
2023-03-03T17:00:31.030Z,100008.59
2023-03-03T17:03:29.322Z,100025.28
2023-03-03T17:06:05.078Z,100017.38
2023-03-03T17:08:59.944Z,100018.28
2023-03-03T17:11:38.645Z,100024.25
2023-03-03T17:14:20.897Z,100023.69
2023-03-03T17:16:57.983Z,100006.38
2023-03-03T17:19:47.529Z,100004.53
2023-03-03T17:22:24.454Z,100000.97
2023-03-03T17:25:05.336Z,99993.88
2023-03-03T17:27:58.062Z,99998.25
2023-03-03T17:30:32.813Z,99993.44
2023-03-03T17:33:15.315Z,99981.22
2023-03-03T17:35:56.878Z,99992.78
2023-03-03T17:38:36.247Z,99981.78
2023-03-03T17:41:09.448Z,100000.22
2023-03-03T17:43:47.418Z,99999.16
2023-03-03T17:46:19.259Z,99998.09
2023-03-03T17:49:18.459Z,100000.53
2023-03-03T17:52:22.990Z,99996.81
2023-03-03T17:55:07.914Z,99998.47
2023-03-03T17:57:51.351Z,99934.28
2023-03-03T18:00:43.812Z,99982.63
2023-03-03T18:03:51.478Z,100001.47
2023-03-03T18:06:52.263Z,100014.34
2023-03-03T18:09:33.803Z,100016.28
2023-03-03T18:12:19.978Z,100002.50
2023-03-03T18:15:10.772Z,100008.97
2023-03-03T18:17:52.284Z,100015.94
2023-03-03T18:20:31.877Z,100012.53
2023-03-03T18:23:35.251Z,100000.03
2023-03-03T18:26:04.963Z,100019.25
2023-03-03T18:28:49.061Z,100008.88
2023-03-03T18:31:25.241Z,99972.50
2023-03-03T18:34:04.762Z,100010.41
2023-03-03T18:36:39.692Z,100035.41
2023-03-03T18:39:15.044Z,100035.28
2023-03-03T18:42:09.510Z,100030.84
2023-03-03T18:44:39.007Z,100026.31
2023-03-03T18:47:06.806Z,100013.81
2023-03-03T18:49:56.472Z,99957.72
2023-03-03T18:52:29.870Z,100015.88
2023-03-03T18:55:23.978Z,100016.72
2023-03-03T18:58:31.216Z,100030.69
2023-03-03T19:01:08.322Z,100026.63
2023-03-03T19:03:38.168Z,99940.09
2023-03-03T19:06:08.764Z,100028.47
2023-03-03T19:08:53.878Z,100018.84
2023-03-03T19:11:37.236Z,100031.75
2023-03-03T19:14:20.962Z,100016.13
2023-03-03T19:16:52.411Z,100021.66
2023-03-03T19:19:23.042Z,100018.06
2023-03-03T19:21:53.516Z,100018.81
2023-03-03T19:24:31.472Z,100037.09
2023-03-03T19:27:31.843Z,100052.63
2023-03-03T19:30:29.138Z,100045.47
2023-03-03T19:33:15.179Z,100037.50
2023-03-03T19:36:41.332Z,100026.00
2023-03-03T19:39:51.959Z,100028.34
2023-03-03T19:42:35.048Z,100042.88
2023-03-03T19:45:16.597Z,100045.28
2023-03-03T19:47:49.210Z,100040.81
2023-03-03T19:50:31.243Z,100051.00
2023-03-03T19:53:06.022Z,100039.59
2023-03-03T19:55:44.627Z,100044.66
2023-03-03T19:58:23.707Z,100034.16
2023-03-03T20:01:01.903Z,100031.44
2023-03-03T20:03:53.938Z,100039.03
2023-03-03T20:06:37.781Z,100040.66
2023-03-03T20:09:15.479Z,100037.13
2023-03-03T20:11:59.281Z,100051.78
2023-03-03T20:14:45.625Z,100044.63
2023-03-03T20:17:40.354Z,100043.41
2023-03-03T20:20:21.625Z,100009.63
2023-03-03T20:22:56.380Z,100036.88
2023-03-03T20:25:31.172Z,100027.97
2023-03-03T20:28:07.793Z,100045.91
2023-03-03T20:30:48.504Z,100018.38
2023-03-03T20:33:36.444Z,100029.75
2023-03-03T20:36:12.472Z,100017.91
2023-03-03T20:38:52.711Z,100045.84
2023-03-03T20:41:34.964Z,100046.44
2023-03-03T20:44:15.828Z,100048.09
2023-03-03T20:46:54.425Z,100040.09
2023-03-03T20:49:40.355Z,100034.66
2023-03-03T20:52:15.768Z,100038.06
2023-03-03T20:54:55.776Z,100049.03
2023-03-03T20:57:34.157Z,100048.88
2023-03-03T21:00:05.984Z,100021.25
2023-03-03T21:02:43.244Z,100052.81
2023-03-03T21:05:14.640Z,100033.25
2023-03-03T21:07:53.716Z,100050.75
2023-03-03T21:10:25.700Z,100013.94
2023-03-03T21:12:55.172Z,100036.25
2023-03-03T21:15:26.604Z,100062.69
2023-03-03T21:17:55.946Z,100041.91
2023-03-03T21:20:30.891Z,100057.28
2023-03-03T21:23:00.295Z,100065.81
2023-03-03T21:25:53.337Z,100065.81
2023-03-03T21:28:24.720Z,100073.44
2023-03-03T21:31:17.351Z,100056.13
2023-03-03T21:33:54.108Z,100025.50
2023-03-03T21:36:24.928Z,100055.84
2023-03-03T21:38:54.343Z,100059.19
2023-03-03T21:41:23.596Z,100070.19
2023-03-03T21:43:53.810Z,100035.03
2023-03-03T21:46:23.094Z,100067.03
2023-03-03T21:48:51.667Z,100029.69
2023-03-03T21:51:20.602Z,100074.03
2023-03-03T21:53:48.622Z,100044.09
2023-03-03T21:56:16.622Z,100080.91
2023-03-03T21:58:46.160Z,100068.63
2023-03-03T22:01:14.007Z,100076.25
2023-03-03T22:03:44.771Z,100073.50
2023-03-03T22:06:12.684Z,100071.66
2023-03-03T22:08:40.468Z,100018.13
2023-03-03T22:11:08.421Z,100074.66
2023-03-03T22:13:36.321Z,100090.09
2023-03-03T22:16:07.720Z,100079.53
2023-03-03T22:18:35.729Z,100085.44
2023-03-03T22:21:03.803Z,100082.78
2023-03-03T22:23:31.612Z,100087.88
2023-03-03T22:25:59.779Z,100091.19
2023-03-03T22:28:29.275Z,100081.50
2023-03-03T22:30:57.220Z,100093.38
2023-03-03T22:33:26.707Z,100034.25
2023-03-03T22:35:54.616Z,100024.59
2023-03-03T22:38:23.764Z,100095.56
2023-03-03T22:40:52.706Z,100065.09
2023-03-03T22:43:20.611Z,100112.53
2023-03-03T22:45:48.453Z,100096.00
2023-03-03T22:48:16.515Z,100054.94
2023-03-03T22:50:47.496Z,100107.03
2023-03-03T22:53:15.321Z,100106.88
2023-03-03T22:55:43.494Z,100021.53
2023-03-03T22:58:12.223Z,100100.34
2023-03-03T23:00:40.244Z,100088.16
2023-03-03T23:03:09.349Z,100090.50
2023-03-03T23:05:37.872Z,99982.81
2023-03-03T23:08:10.844Z,100088.34
2023-03-03T23:10:39.222Z,100035.25
2023-03-03T23:13:07.120Z,100089.06
2023-03-03T23:15:35.214Z,100082.84
2023-03-03T23:18:03.400Z,100084.63
2023-03-03T23:20:32.718Z,100103.50
2023-03-03T23:23:00.958Z,100110.91
2023-03-03T23:25:30.969Z,100109.06
2023-03-03T23:27:59.302Z,100092.53
2023-03-03T23:30:27.172Z,100113.00
2023-03-03T23:32:55.354Z,100095.75
2023-03-03T23:35:23.294Z,100012.13
2023-03-03T23:37:51.150Z,100114.44
2023-03-03T23:40:19.775Z,100085.00
2023-03-03T23:42:48.939Z,100099.59
2023-03-03T23:45:17.319Z,100092.88
2023-03-03T23:47:45.904Z,100113.94
2023-03-03T23:50:14.903Z,100097.06
2023-03-03T23:52:42.714Z,100107.56
2023-03-03T23:55:11.348Z,100087.31
2023-03-03T23:57:39.145Z,100108.13
